sensor_id;sensor_type;location;lat;lon;timestamp;temperature;humidity
22436;DHT22;11385;50.822;4.324;2023-12-22T00:01:13;10.50;99.90
22436;DHT22;11385;50.822;4.324;2023-12-22T00:03:43;10.30;99.90
22436;DHT22;11385;50.822;4.324;2023-12-22T00:06:12;10.10;99.90
22436;DHT22;11385;50.822;4.324;2023-12-22T00:08:39;10.10;99.90
22436;DHT22;11385;50.822;4.324;2023-12-22T00:11:05;10.10;99.90
22436;DHT22;11385;50.822;4.324;2023-12-22T00:13:32;10.10;99.90
22436;DHT22;11385;50.822;4.324;2023-12-22T00:16:00;10.00;99.90
22436;DHT22;11385;50.822;4.324;2023-12-22T00:18:27;10.00;99.90
22436;DHT22;11385;50.822;4.324;2023-12-22T00:20:53;9.90;99.90
22436;DHT22;11385;50.822;4.324;2023-12-22T00:23:20;10.00;99.90
22436;DHT22;11385;50.822;4.324;2023-12-22T00:25:47;9.80;99.90
22436;DHT22;11385;50.822;4.324;2023-12-22T00:28:14;9.70;99.90
22436;DHT22;11385;50.822;4.324;2023-12-22T00:30:40;9.40;99.90
22436;DHT22;11385;50.822;4.324;2023-12-22T00:33:07;9.10;99.90
22436;DHT22;11385;50.822;4.324;2023-12-22T00:35:34;9.00;99.90
22436;DHT22;11385;50.822;4.324;2023-12-22T00:38:01;8.90;99.90
22436;DHT22;11385;50.822;4.324;2023-12-22T00:40:28;8.90;99.90
22436;DHT22;11385;50.822;4.324;2023-12-22T00:42:56;8.80;99.90
22436;DHT22;11385;50.822;4.324;2023-12-22T00:45:22;8.70;99.90
22436;DHT22;11385;50.822;4.324;2023-12-22T00:47:49;8.70;99.90
22436;DHT22;11385;50.822;4.324;2023-12-22T00:50:16;8.70;99.90
22436;DHT22;11385;50.822;4.324;2023-12-22T00:52:43;8.70;99.90
22436;DHT22;11385;50.822;4.324;2023-12-22T00:55:10;8.70;99.90
22436;DHT22;11385;50.822;4.324;2023-12-22T00:57:36;8.70;99.90
22436;DHT22;11385;50.822;4.324;2023-12-22T01:00:04;8.70;99.90
22436;DHT22;11385;50.822;4.324;2023-12-22T01:02:31;8.80;99.90
22436;DHT22;11385;50.822;4.324;2023-12-22T01:04:58;8.90;99.90
22436;DHT22;11385;50.822;4.324;2023-12-22T01:07:25;9.00;99.90
22436;DHT22;11385;50.822;4.324;2023-12-22T01:09:51;9.00;99.90
22436;DHT22;11385;50.822;4.324;2023-12-22T01:12:18;9.00;99.90
22436;DHT22;11385;50.822;4.324;2023-12-22T01:14:45;9.10;99.90
22436;DHT22;11385;50.822;4.324;2023-12-22T01:17:11;9.20;99.90
22436;DHT22;11385;50.822;4.324;2023-12-22T01:19:38;9.20;99.90
22436;DHT22;11385;50.822;4.324;2023-12-22T01:22:05;9.20;99.90
22436;DHT22;11385;50.822;4.324;2023-12-22T01:24:32;9.30;99.90
22436;DHT22;11385;50.822;4.324;2023-12-22T01:26:58;9.40;99.90
22436;DHT22;11385;50.822;4.324;2023-12-22T01:29:25;9.50;99.90
22436;DHT22;11385;50.822;4.324;2023-12-22T01:31:53;9.50;99.90
22436;DHT22;11385;50.822;4.324;2023-12-22T01:34:19;9.60;99.90
22436;DHT22;11385;50.822;4.324;2023-12-22T01:36:46;9.60;99.90
22436;DHT22;11385;50.822;4.324;2023-12-22T01:39:13;9.60;99.90
22436;DHT22;11385;50.822;4.324;2023-12-22T01:41:40;9.70;99.90
22436;DHT22;11385;50.822;4.324;2023-12-22T01:44:06;9.60;99.90
22436;DHT22;11385;50.822;4.324;2023-12-22T01:46:33;9.70;99.90
22436;DHT22;11385;50.822;4.324;2023-12-22T01:49:01;9.60;99.90
22436;DHT22;11385;50.822;4.324;2023-12-22T01:51:29;9.70;99.90
22436;DHT22;11385;50.822;4.324;2023-12-22T01:53:57;9.60;99.90
22436;DHT22;11385;50.822;4.324;2023-12-22T01:56:24;9.70;99.90
22436;DHT22;11385;50.822;4.324;2023-12-22T01:58:53;9.60;99.90
22436;DHT22;11385;50.822;4.324;2023-12-22T02:01:22;9.60;99.90
22436;DHT22;11385;50.822;4.324;2023-12-22T02:03:51;9.60;99.90
22436;DHT22;11385;50.822;4.324;2023-12-22T02:06:19;9.60;99.90
22436;DHT22;11385;50.822;4.324;2023-12-22T02:08:47;9.60;99.90
22436;DHT22;11385;50.822;4.324;2023-12-22T02:11:15;9.60;99.90
22436;DHT22;11385;50.822;4.324;2023-12-22T02:13:43;9.50;99.90
22436;DHT22;11385;50.822;4.324;2023-12-22T02:18:47;9.50;99.90
22436;DHT22;11385;50.822;4.324;2023-12-22T02:21:15;9.60;99.90
22436;DHT22;11385;50.822;4.324;2023-12-22T02:23:41;9.60;99.90
22436;DHT22;11385;50.822;4.324;2023-12-22T02:26:17;9.60;99.90
22436;DHT22;11385;50.822;4.324;2023-12-22T02:28:44;9.60;99.90
22436;DHT22;11385;50.822;4.324;2023-12-22T02:31:18;9.60;99.90
22436;DHT22;11385;50.822;4.324;2023-12-22T02:33:47;9.60;99.90
22436;DHT22;11385;50.822;4.324;2023-12-22T02:36:16;9.60;99.90
22436;DHT22;11385;50.822;4.324;2023-12-22T02:38:45;9.60;99.90
22436;DHT22;11385;50.822;4.324;2023-12-22T02:41:12;9.60;99.90
22436;DHT22;11385;50.822;4.324;2023-12-22T02:43:40;9.60;99.90
22436;DHT22;11385;50.822;4.324;2023-12-22T02:46:13;9.60;99.90
22436;DHT22;11385;50.822;4.324;2023-12-22T02:48:41;9.60;99.90
22436;DHT22;11385;50.822;4.324;2023-12-22T02:51:07;9.60;99.90
22436;DHT22;11385;50.822;4.324;2023-12-22T02:53:34;9.60;99.90
22436;DHT22;11385;50.822;4.324;2023-12-22T02:56:00;9.50;99.90
22436;DHT22;11385;50.822;4.324;2023-12-22T02:58:28;9.50;99.90
22436;DHT22;11385;50.822;4.324;2023-12-22T03:00:55;9.50;99.90
22436;DHT22;11385;50.822;4.324;2023-12-22T03:03:21;9.60;99.90
22436;DHT22;11385;50.822;4.324;2023-12-22T03:05:48;9.50;99.90
22436;DHT22;11385;50.822;4.324;2023-12-22T03:08:15;9.50;99.90
22436;DHT22;11385;50.822;4.324;2023-12-22T03:10:41;9.50;99.90
22436;DHT22;11385;50.822;4.324;2023-12-22T03:13:08;9.50;99.90
22436;DHT22;11385;50.822;4.324;2023-12-22T03:15:35;9.40;99.90
22436;DHT22;11385;50.822;4.324;2023-12-22T03:18:01;9.40;99.90
22436;DHT22;11385;50.822;4.324;2023-12-22T03:20:28;9.30;99.90
22436;DHT22;11385;50.822;4.324;2023-12-22T03:22:55;9.30;99.90
22436;DHT22;11385;50.822;4.324;2023-12-22T03:25:21;9.20;99.90
22436;DHT22;11385;50.822;4.324;2023-12-22T03:27:48;9.20;99.90
22436;DHT22;11385;50.822;4.324;2023-12-22T03:30:15;9.20;99.90
22436;DHT22;11385;50.822;4.324;2023-12-22T03:32:41;9.20;99.90
22436;DHT22;11385;50.822;4.324;2023-12-22T03:35:11;9.20;99.90
22436;DHT22;11385;50.822;4.324;2023-12-22T03:37:38;9.20;99.90
22436;DHT22;11385;50.822;4.324;2023-12-22T03:40:05;9.20;99.90
22436;DHT22;11385;50.822;4.324;2023-12-22T03:42:32;9.10;99.90
22436;DHT22;11385;50.822;4.324;2023-12-22T03:44:58;9.10;99.90
22436;DHT22;11385;50.822;4.324;2023-12-22T03:47:25;9.10;99.90
22436;DHT22;11385;50.822;4.324;2023-12-22T03:49:52;9.00;99.90
22436;DHT22;11385;50.822;4.324;2023-12-22T03:52:19;8.90;99.90
22436;DHT22;11385;50.822;4.324;2023-12-22T03:54:46;8.80;99.90
22436;DHT22;11385;50.822;4.324;2023-12-22T03:57:12;8.80;99.90
22436;DHT22;11385;50.822;4.324;2023-12-22T03:59:39;8.80;99.90
22436;DHT22;11385;50.822;4.324;2023-12-22T04:02:05;8.80;99.90
22436;DHT22;11385;50.822;4.324;2023-12-22T04:04:32;8.80;99.90
22436;DHT22;11385;50.822;4.324;2023-12-22T04:06:59;8.70;99.90
22436;DHT22;11385;50.822;4.324;2023-12-22T04:09:26;8.70;99.90
22436;DHT22;11385;50.822;4.324;2023-12-22T04:11:53;8.70;99.90
22436;DHT22;11385;50.822;4.324;2023-12-22T04:14:20;8.70;99.90
22436;DHT22;11385;50.822;4.324;2023-12-22T04:16:46;8.70;99.90
22436;DHT22;11385;50.822;4.324;2023-12-22T04:19:13;8.70;99.90
22436;DHT22;11385;50.822;4.324;2023-12-22T04:21:40;8.70;99.90
22436;DHT22;11385;50.822;4.324;2023-12-22T04:24:07;8.70;99.90
22436;DHT22;11385;50.822;4.324;2023-12-22T04:26:33;8.70;99.90
22436;DHT22;11385;50.822;4.324;2023-12-22T04:29:00;8.60;99.90
22436;DHT22;11385;50.822;4.324;2023-12-22T04:31:27;8.60;99.90
22436;DHT22;11385;50.822;4.324;2023-12-22T04:33:53;8.60;99.90
22436;DHT22;11385;50.822;4.324;2023-12-22T04:36:21;8.60;99.90
22436;DHT22;11385;50.822;4.324;2023-12-22T04:38:48;8.60;99.90
22436;DHT22;11385;50.822;4.324;2023-12-22T04:41:15;8.50;99.90
22436;DHT22;11385;50.822;4.324;2023-12-22T04:43:42;8.40;99.90
22436;DHT22;11385;50.822;4.324;2023-12-22T04:46:08;8.40;99.90
22436;DHT22;11385;50.822;4.324;2023-12-22T04:48:35;8.50;99.90
22436;DHT22;11385;50.822;4.324;2023-12-22T04:51:02;8.50;99.90
22436;DHT22;11385;50.822;4.324;2023-12-22T04:53:29;8.50;99.90
22436;DHT22;11385;50.822;4.324;2023-12-22T04:55:55;8.50;99.90
22436;DHT22;11385;50.822;4.324;2023-12-22T04:58:22;8.50;99.90
22436;DHT22;11385;50.822;4.324;2023-12-22T05:00:49;8.60;99.90
22436;DHT22;11385;50.822;4.324;2023-12-22T05:03:15;8.60;99.90
22436;DHT22;11385;50.822;4.324;2023-12-22T05:05:42;8.70;99.90
22436;DHT22;11385;50.822;4.324;2023-12-22T05:08:09;8.70;99.90
22436;DHT22;11385;50.822;4.324;2023-12-22T05:10:35;8.80;99.90
22436;DHT22;11385;50.822;4.324;2023-12-22T05:13:02;8.90;99.90
22436;DHT22;11385;50.822;4.324;2023-12-22T05:15:29;8.90;99.90
22436;DHT22;11385;50.822;4.324;2023-12-22T05:17:56;8.90;99.90
22436;DHT22;11385;50.822;4.324;2023-12-22T05:20:22;9.00;99.90
22436;DHT22;11385;50.822;4.324;2023-12-22T05:22:49;9.00;99.90
22436;DHT22;11385;50.822;4.324;2023-12-22T05:25:16;9.00;99.90
22436;DHT22;11385;50.822;4.324;2023-12-22T05:27:43;9.10;99.90
22436;DHT22;11385;50.822;4.324;2023-12-22T05:30:11;9.10;99.90
22436;DHT22;11385;50.822;4.324;2023-12-22T05:32:37;9.20;99.90
22436;DHT22;11385;50.822;4.324;2023-12-22T05:35:05;9.20;99.90
22436;DHT22;11385;50.822;4.324;2023-12-22T05:37:31;9.30;99.90
22436;DHT22;11385;50.822;4.324;2023-12-22T05:39:58;9.30;99.90
22436;DHT22;11385;50.822;4.324;2023-12-22T05:42:24;9.40;99.90
22436;DHT22;11385;50.822;4.324;2023-12-22T05:44:51;9.60;99.90
22436;DHT22;11385;50.822;4.324;2023-12-22T05:47:18;9.50;99.90
22436;DHT22;11385;50.822;4.324;2023-12-22T05:49:46;9.50;99.90
22436;DHT22;11385;50.822;4.324;2023-12-22T05:52:13;9.60;99.90
22436;DHT22;11385;50.822;4.324;2023-12-22T05:54:39;9.50;99.90
22436;DHT22;11385;50.822;4.324;2023-12-22T05:57:06;9.50;99.90
22436;DHT22;11385;50.822;4.324;2023-12-22T05:59:33;9.50;99.90
22436;DHT22;11385;50.822;4.324;2023-12-22T06:02:00;9.60;99.90
22436;DHT22;11385;50.822;4.324;2023-12-22T06:04:28;9.60;99.90
22436;DHT22;11385;50.822;4.324;2023-12-22T06:06:55;9.60;99.90
22436;DHT22;11385;50.822;4.324;2023-12-22T06:09:21;9.50;99.90
22436;DHT22;11385;50.822;4.324;2023-12-22T06:11:48;9.60;99.90
22436;DHT22;11385;50.822;4.324;2023-12-22T06:14:15;9.60;99.90
22436;DHT22;11385;50.822;4.324;2023-12-22T06:16:43;9.60;99.90
22436;DHT22;11385;50.822;4.324;2023-12-22T06:19:09;9.70;99.90
22436;DHT22;11385;50.822;4.324;2023-12-22T06:21:38;9.60;99.90
22436;DHT22;11385;50.822;4.324;2023-12-22T06:24:05;9.60;99.90
22436;DHT22;11385;50.822;4.324;2023-12-22T06:26:32;9.60;99.90
22436;DHT22;11385;50.822;4.324;2023-12-22T06:28:59;9.60;99.90
22436;DHT22;11385;50.822;4.324;2023-12-22T06:31:25;9.60;99.90
22436;DHT22;11385;50.822;4.324;2023-12-22T06:33:53;9.70;99.90
22436;DHT22;11385;50.822;4.324;2023-12-22T06:36:21;9.70;99.90
22436;DHT22;11385;50.822;4.324;2023-12-22T06:38:49;9.80;99.90
22436;DHT22;11385;50.822;4.324;2023-12-22T06:41:21;9.70;99.90
22436;DHT22;11385;50.822;4.324;2023-12-22T06:43:48;9.60;99.90
22436;DHT22;11385;50.822;4.324;2023-12-22T06:46:25;9.60;99.90
22436;DHT22;11385;50.822;4.324;2023-12-22T06:48:54;9.60;99.90
22436;DHT22;11385;50.822;4.324;2023-12-22T06:51:29;9.60;99.90
22436;DHT22;11385;50.822;4.324;2023-12-22T06:53:57;9.60;99.90
22436;DHT22;11385;50.822;4.324;2023-12-22T06:56:28;9.60;99.90
22436;DHT22;11385;50.822;4.324;2023-12-22T06:58:57;9.60;99.90
22436;DHT22;11385;50.822;4.324;2023-12-22T07:01:27;9.60;99.90
22436;DHT22;11385;50.822;4.324;2023-12-22T07:03:54;9.60;99.90
22436;DHT22;11385;50.822;4.324;2023-12-22T07:06:22;9.60;99.90
22436;DHT22;11385;50.822;4.324;2023-12-22T07:08:57;9.50;99.90
22436;DHT22;11385;50.822;4.324;2023-12-22T07:11:24;9.50;99.90
22436;DHT22;11385;50.822;4.324;2023-12-22T07:13:50;9.60;99.90
22436;DHT22;11385;50.822;4.324;2023-12-22T07:16:17;9.50;99.90
22436;DHT22;11385;50.822;4.324;2023-12-22T07:18:44;9.70;99.90
22436;DHT22;11385;50.822;4.324;2023-12-22T07:21:15;9.70;99.90
22436;DHT22;11385;50.822;4.324;2023-12-22T07:23:41;9.70;99.90
22436;DHT22;11385;50.822;4.324;2023-12-22T07:26:10;9.90;99.90
22436;DHT22;11385;50.822;4.324;2023-12-22T07:28:37;9.90;99.90
22436;DHT22;11385;50.822;4.324;2023-12-22T07:31:04;9.90;99.90
22436;DHT22;11385;50.822;4.324;2023-12-22T07:33:31;10.00;99.90
22436;DHT22;11385;50.822;4.324;2023-12-22T07:35:58;10.00;99.90
22436;DHT22;11385;50.822;4.324;2023-12-22T07:38:25;9.90;99.90
22436;DHT22;11385;50.822;4.324;2023-12-22T07:40:51;9.90;99.90
22436;DHT22;11385;50.822;4.324;2023-12-22T07:43:18;9.90;99.90
22436;DHT22;11385;50.822;4.324;2023-12-22T07:45:45;9.90;99.90
22436;DHT22;11385;50.822;4.324;2023-12-22T07:48:11;9.90;99.90
22436;DHT22;11385;50.822;4.324;2023-12-22T07:50:39;9.80;99.90
22436;DHT22;11385;50.822;4.324;2023-12-22T07:53:09;9.70;99.90
22436;DHT22;11385;50.822;4.324;2023-12-22T07:55:36;9.70;99.90
22436;DHT22;11385;50.822;4.324;2023-12-22T07:58:05;9.70;99.90
22436;DHT22;11385;50.822;4.324;2023-12-22T08:00:32;9.70;99.90
22436;DHT22;11385;50.822;4.324;2023-12-22T08:02:58;9.70;99.90
22436;DHT22;11385;50.822;4.324;2023-12-22T08:05:26;9.80;99.90
22436;DHT22;11385;50.822;4.324;2023-12-22T08:07:53;9.70;99.90
22436;DHT22;11385;50.822;4.324;2023-12-22T08:10:19;9.70;99.90
22436;DHT22;11385;50.822;4.324;2023-12-22T08:12:46;9.70;99.90
22436;DHT22;11385;50.822;4.324;2023-12-22T08:15:13;9.60;99.90
22436;DHT22;11385;50.822;4.324;2023-12-22T08:17:46;9.60;99.90
22436;DHT22;11385;50.822;4.324;2023-12-22T08:20:17;9.70;99.90
22436;DHT22;11385;50.822;4.324;2023-12-22T08:22:46;9.70;99.90
22436;DHT22;11385;50.822;4.324;2023-12-22T08:25:14;9.70;99.90
22436;DHT22;11385;50.822;4.324;2023-12-22T08:27:41;9.70;99.90
22436;DHT22;11385;50.822;4.324;2023-12-22T08:30:09;9.70;99.90
22436;DHT22;11385;50.822;4.324;2023-12-22T08:32:36;9.80;99.90
22436;DHT22;11385;50.822;4.324;2023-12-22T08:35:03;9.70;99.90
22436;DHT22;11385;50.822;4.324;2023-12-22T08:37:30;9.70;99.90
22436;DHT22;11385;50.822;4.324;2023-12-22T08:39:57;9.80;99.90
22436;DHT22;11385;50.822;4.324;2023-12-22T08:42:25;9.80;99.90
22436;DHT22;11385;50.822;4.324;2023-12-22T08:44:52;9.70;99.90
22436;DHT22;11385;50.822;4.324;2023-12-22T08:47:19;9.70;99.90
22436;DHT22;11385;50.822;4.324;2023-12-22T08:49:45;9.80;99.90
22436;DHT22;11385;50.822;4.324;2023-12-22T08:52:12;9.80;99.90
22436;DHT22;11385;50.822;4.324;2023-12-22T08:54:39;9.90;99.90
22436;DHT22;11385;50.822;4.324;2023-12-22T08:57:06;9.80;99.90
22436;DHT22;11385;50.822;4.324;2023-12-22T08:59:33;9.90;99.90
22436;DHT22;11385;50.822;4.324;2023-12-22T09:01:59;9.90;99.90
22436;DHT22;11385;50.822;4.324;2023-12-22T09:04:26;9.90;99.90
22436;DHT22;11385;50.822;4.324;2023-12-22T09:06:53;10.00;99.90
22436;DHT22;11385;50.822;4.324;2023-12-22T09:09:19;10.00;99.90
22436;DHT22;11385;50.822;4.324;2023-12-22T09:11:48;10.00;99.90
22436;DHT22;11385;50.822;4.324;2023-12-22T09:14:14;10.00;99.90
22436;DHT22;11385;50.822;4.324;2023-12-22T09:16:41;10.10;99.90
22436;DHT22;11385;50.822;4.324;2023-12-22T09:19:10;10.00;99.90
22436;DHT22;11385;50.822;4.324;2023-12-22T09:21:36;10.00;99.90
22436;DHT22;11385;50.822;4.324;2023-12-22T09:24:03;10.10;99.90
22436;DHT22;11385;50.822;4.324;2023-12-22T09:26:31;10.00;99.90
22436;DHT22;11385;50.822;4.324;2023-12-22T09:28:59;10.00;99.90
22436;DHT22;11385;50.822;4.324;2023-12-22T09:31:25;10.10;99.90
22436;DHT22;11385;50.822;4.324;2023-12-22T09:33:52;10.10;99.90
22436;DHT22;11385;50.822;4.324;2023-12-22T09:36:19;10.10;99.90
22436;DHT22;11385;50.822;4.324;2023-12-22T09:38:46;10.10;99.90
22436;DHT22;11385;50.822;4.324;2023-12-22T09:41:12;10.10;99.90
22436;DHT22;11385;50.822;4.324;2023-12-22T09:43:40;10.10;99.90
22436;DHT22;11385;50.822;4.324;2023-12-22T09:46:10;10.10;99.90
22436;DHT22;11385;50.822;4.324;2023-12-22T09:48:38;10.20;99.90
22436;DHT22;11385;50.822;4.324;2023-12-22T09:51:06;10.20;99.90
22436;DHT22;11385;50.822;4.324;2023-12-22T09:53:34;10.20;99.90
22436;DHT22;11385;50.822;4.324;2023-12-22T09:56:03;10.30;99.90
22436;DHT22;11385;50.822;4.324;2023-12-22T09:58:30;10.30;99.90
22436;DHT22;11385;50.822;4.324;2023-12-22T10:00:57;10.20;99.90
22436;DHT22;11385;50.822;4.324;2023-12-22T10:03:26;10.20;99.90
22436;DHT22;11385;50.822;4.324;2023-12-22T10:05:53;10.10;99.90
22436;DHT22;11385;50.822;4.324;2023-12-22T10:08:20;10.20;99.90
22436;DHT22;11385;50.822;4.324;2023-12-22T10:10:47;10.10;99.90
22436;DHT22;11385;50.822;4.324;2023-12-22T10:13:15;10.20;99.90
22436;DHT22;11385;50.822;4.324;2023-12-22T10:15:42;10.30;99.90
22436;DHT22;11385;50.822;4.324;2023-12-22T10:18:10;10.20;99.90
22436;DHT22;11385;50.822;4.324;2023-12-22T10:20:37;10.20;99.90
22436;DHT22;11385;50.822;4.324;2023-12-22T10:23:04;10.20;99.90
22436;DHT22;11385;50.822;4.324;2023-12-22T10:25:32;10.20;99.90
22436;DHT22;11385;50.822;4.324;2023-12-22T10:27:59;10.20;99.90
22436;DHT22;11385;50.822;4.324;2023-12-22T10:30:27;10.20;99.90
22436;DHT22;11385;50.822;4.324;2023-12-22T10:32:55;10.20;99.90
22436;DHT22;11385;50.822;4.324;2023-12-22T10:35:22;10.20;99.90
22436;DHT22;11385;50.822;4.324;2023-12-22T10:37:49;10.20;99.90
22436;DHT22;11385;50.822;4.324;2023-12-22T10:40:19;10.20;99.90
22436;DHT22;11385;50.822;4.324;2023-12-22T10:42:46;10.20;99.90
22436;DHT22;11385;50.822;4.324;2023-12-22T10:45:13;10.20;99.90
22436;DHT22;11385;50.822;4.324;2023-12-22T10:47:41;10.30;99.90
22436;DHT22;11385;50.822;4.324;2023-12-22T10:50:11;10.30;99.90
22436;DHT22;11385;50.822;4.324;2023-12-22T10:52:39;10.30;99.90
22436;DHT22;11385;50.822;4.324;2023-12-22T10:55:06;10.30;99.90
22436;DHT22;11385;50.822;4.324;2023-12-22T10:57:33;10.30;99.90
22436;DHT22;11385;50.822;4.324;2023-12-22T11:00:02;10.20;99.90
22436;DHT22;11385;50.822;4.324;2023-12-22T11:02:33;10.20;99.90
22436;DHT22;11385;50.822;4.324;2023-12-22T11:05:03;10.20;99.90
22436;DHT22;11385;50.822;4.324;2023-12-22T11:07:33;10.20;99.90
22436;DHT22;11385;50.822;4.324;2023-12-22T11:10:04;10.20;99.90
22436;DHT22;11385;50.822;4.324;2023-12-22T11:12:35;10.20;99.90
22436;DHT22;11385;50.822;4.324;2023-12-22T11:15:03;10.20;99.90
22436;DHT22;11385;50.822;4.324;2023-12-22T11:17:33;10.20;99.90
22436;DHT22;11385;50.822;4.324;2023-12-22T11:20:02;10.20;99.90
22436;DHT22;11385;50.822;4.324;2023-12-22T11:22:31;10.20;99.90
22436;DHT22;11385;50.822;4.324;2023-12-22T11:25:00;10.20;99.90
22436;DHT22;11385;50.822;4.324;2023-12-22T11:27:29;10.20;99.90
22436;DHT22;11385;50.822;4.324;2023-12-22T11:29:58;10.20;99.90
22436;DHT22;11385;50.822;4.324;2023-12-22T11:32:28;10.20;99.90
22436;DHT22;11385;50.822;4.324;2023-12-22T11:34:56;10.30;99.90
22436;DHT22;11385;50.822;4.324;2023-12-22T11:37:25;10.30;99.90
22436;DHT22;11385;50.822;4.324;2023-12-22T11:39:52;10.40;99.90
22436;DHT22;11385;50.822;4.324;2023-12-22T11:42:21;10.40;99.90
22436;DHT22;11385;50.822;4.324;2023-12-22T11:44:48;10.40;99.90
22436;DHT22;11385;50.822;4.324;2023-12-22T11:47:16;10.50;99.90
22436;DHT22;11385;50.822;4.324;2023-12-22T11:49:43;10.50;99.90
22436;DHT22;11385;50.822;4.324;2023-12-22T11:52:12;10.60;99.90
22436;DHT22;11385;50.822;4.324;2023-12-22T11:54:46;10.70;99.90
22436;DHT22;11385;50.822;4.324;2023-12-22T11:59:51;10.70;99.90
22436;DHT22;11385;50.822;4.324;2023-12-22T12:02:18;10.70;99.90
22436;DHT22;11385;50.822;4.324;2023-12-22T12:04:47;10.70;99.90
22436;DHT22;11385;50.822;4.324;2023-12-22T12:07:39;10.80;99.90
22436;DHT22;11385;50.822;4.324;2023-12-22T12:10:07;10.90;99.90
22436;DHT22;11385;50.822;4.324;2023-12-22T12:12:35;11.00;99.90
22436;DHT22;11385;50.822;4.324;2023-12-22T12:15:06;11.10;99.90
22436;DHT22;11385;50.822;4.324;2023-12-22T12:17:38;11.10;99.90
22436;DHT22;11385;50.822;4.324;2023-12-22T12:20:06;11.10;99.90
22436;DHT22;11385;50.822;4.324;2023-12-22T12:22:34;11.10;99.90
22436;DHT22;11385;50.822;4.324;2023-12-22T12:25:00;11.10;99.90
22436;DHT22;11385;50.822;4.324;2023-12-22T12:27:27;11.20;99.90
22436;DHT22;11385;50.822;4.324;2023-12-22T12:29:54;11.20;99.90
22436;DHT22;11385;50.822;4.324;2023-12-22T12:32:23;11.30;99.90
22436;DHT22;11385;50.822;4.324;2023-12-22T12:34:51;11.30;99.90
22436;DHT22;11385;50.822;4.324;2023-12-22T12:37:18;11.30;99.90
22436;DHT22;11385;50.822;4.324;2023-12-22T12:39:46;11.30;99.90
22436;DHT22;11385;50.822;4.324;2023-12-22T12:42:15;11.30;99.90
22436;DHT22;11385;50.822;4.324;2023-12-22T12:44:44;11.30;99.90
22436;DHT22;11385;50.822;4.324;2023-12-22T12:47:12;11.30;99.90
22436;DHT22;11385;50.822;4.324;2023-12-22T12:49:39;11.20;99.90
22436;DHT22;11385;50.822;4.324;2023-12-22T12:52:15;11.20;99.90
22436;DHT22;11385;50.822;4.324;2023-12-22T12:54:45;11.20;99.90
22436;DHT22;11385;50.822;4.324;2023-12-22T12:57:15;11.20;99.90
22436;DHT22;11385;50.822;4.324;2023-12-22T12:59:45;11.00;99.90
22436;DHT22;11385;50.822;4.324;2023-12-22T13:02:15;10.80;99.90
22436;DHT22;11385;50.822;4.324;2023-12-22T13:04:42;10.70;99.90
22436;DHT22;11385;50.822;4.324;2023-12-22T13:07:09;10.60;99.90
22436;DHT22;11385;50.822;4.324;2023-12-22T13:09:39;10.60;99.90
22436;DHT22;11385;50.822;4.324;2023-12-22T13:12:08;10.60;99.90
22436;DHT22;11385;50.822;4.324;2023-12-22T13:14:35;10.60;99.90
22436;DHT22;11385;50.822;4.324;2023-12-22T13:17:02;10.60;99.90
22436;DHT22;11385;50.822;4.324;2023-12-22T13:19:29;10.60;99.90
22436;DHT22;11385;50.822;4.324;2023-12-22T13:21:56;10.60;99.90
22436;DHT22;11385;50.822;4.324;2023-12-22T13:24:23;10.60;99.90
22436;DHT22;11385;50.822;4.324;2023-12-22T13:26:58;10.70;99.90
22436;DHT22;11385;50.822;4.324;2023-12-22T13:29:26;10.70;99.90
22436;DHT22;11385;50.822;4.324;2023-12-22T13:31:54;10.80;99.90
22436;DHT22;11385;50.822;4.324;2023-12-22T13:34:21;10.80;99.90
22436;DHT22;11385;50.822;4.324;2023-12-22T13:36:48;10.90;99.90
22436;DHT22;11385;50.822;4.324;2023-12-22T13:39:15;10.90;99.90
22436;DHT22;11385;50.822;4.324;2023-12-22T13:41:42;11.00;99.90
22436;DHT22;11385;50.822;4.324;2023-12-22T13:44:12;10.90;99.90
22436;DHT22;11385;50.822;4.324;2023-12-22T13:46:40;10.90;99.90
22436;DHT22;11385;50.822;4.324;2023-12-22T13:49:09;11.00;99.90
22436;DHT22;11385;50.822;4.324;2023-12-22T13:51:42;10.90;99.90
22436;DHT22;11385;50.822;4.324;2023-12-22T13:54:09;10.90;99.90
22436;DHT22;11385;50.822;4.324;2023-12-22T13:56:37;10.80;99.90
22436;DHT22;11385;50.822;4.324;2023-12-22T13:59:14;10.90;99.90
22436;DHT22;11385;50.822;4.324;2023-12-22T14:01:49;10.80;99.90
22436;DHT22;11385;50.822;4.324;2023-12-22T14:04:24;10.80;99.90
22436;DHT22;11385;50.822;4.324;2023-12-22T14:07:02;10.80;99.90
22436;DHT22;11385;50.822;4.324;2023-12-22T14:09:37;10.70;99.90
22436;DHT22;11385;50.822;4.324;2023-12-22T14:12:15;10.70;99.90
22436;DHT22;11385;50.822;4.324;2023-12-22T14:14:51;10.70;99.90
22436;DHT22;11385;50.822;4.324;2023-12-22T14:17:26;10.70;99.90
22436;DHT22;11385;50.822;4.324;2023-12-22T14:20:04;10.70;99.90
22436;DHT22;11385;50.822;4.324;2023-12-22T14:22:43;10.70;99.90
22436;DHT22;11385;50.822;4.324;2023-12-22T14:25:17;10.70;99.90
22436;DHT22;11385;50.822;4.324;2023-12-22T14:27:53;10.80;99.90
22436;DHT22;11385;50.822;4.324;2023-12-22T14:32:58;10.90;99.90
22436;DHT22;11385;50.822;4.324;2023-12-22T14:35:36;10.90;99.90
22436;DHT22;11385;50.822;4.324;2023-12-22T14:38:11;11.00;99.90
22436;DHT22;11385;50.822;4.324;2023-12-22T14:40:48;11.10;99.90
22436;DHT22;11385;50.822;4.324;2023-12-22T14:43:23;11.10;99.90
22436;DHT22;11385;50.822;4.324;2023-12-22T14:46:01;11.20;99.90
22436;DHT22;11385;50.822;4.324;2023-12-22T14:48:36;11.20;99.90
22436;DHT22;11385;50.822;4.324;2023-12-22T14:51:11;11.30;99.90
22436;DHT22;11385;50.822;4.324;2023-12-22T14:53:47;11.30;99.90
22436;DHT22;11385;50.822;4.324;2023-12-22T14:56:22;11.30;99.90
22436;DHT22;11385;50.822;4.324;2023-12-22T14:58:57;11.40;99.90
22436;DHT22;11385;50.822;4.324;2023-12-22T15:01:36;11.30;99.90
22436;DHT22;11385;50.822;4.324;2023-12-22T15:04:13;11.30;99.90
22436;DHT22;11385;50.822;4.324;2023-12-22T15:06:45;11.40;99.90
22436;DHT22;11385;50.822;4.324;2023-12-22T15:09:12;11.40;99.90
22436;DHT22;11385;50.822;4.324;2023-12-22T15:11:42;11.40;99.90
22436;DHT22;11385;50.822;4.324;2023-12-22T15:14:09;11.40;99.90
22436;DHT22;11385;50.822;4.324;2023-12-22T15:16:42;11.40;99.90
22436;DHT22;11385;50.822;4.324;2023-12-22T15:19:13;11.40;99.90
22436;DHT22;11385;50.822;4.324;2023-12-22T15:21:40;11.40;99.90
22436;DHT22;11385;50.822;4.324;2023-12-22T15:24:09;11.40;99.90
22436;DHT22;11385;50.822;4.324;2023-12-22T15:26:36;11.40;99.90
22436;DHT22;11385;50.822;4.324;2023-12-22T15:29:03;11.40;99.90
22436;DHT22;11385;50.822;4.324;2023-12-22T15:31:30;11.50;99.90
22436;DHT22;11385;50.822;4.324;2023-12-22T15:33:57;11.50;99.90
22436;DHT22;11385;50.822;4.324;2023-12-22T15:36:24;11.50;99.90
22436;DHT22;11385;50.822;4.324;2023-12-22T15:38:52;11.50;99.90
22436;DHT22;11385;50.822;4.324;2023-12-22T15:41:19;11.40;99.90
22436;DHT22;11385;50.822;4.324;2023-12-22T15:43:46;11.40;99.90
22436;DHT22;11385;50.822;4.324;2023-12-22T15:46:12;11.40;99.90
22436;DHT22;11385;50.822;4.324;2023-12-22T15:48:39;11.40;99.90
22436;DHT22;11385;50.822;4.324;2023-12-22T15:51:10;11.50;99.90
22436;DHT22;11385;50.822;4.324;2023-12-22T15:53:38;11.50;99.90